createdAt,value
2023-05-21T00:02:30.919Z,17.10
2023-05-21T00:05:02.130Z,16.90
2023-05-21T00:07:34.051Z,17.43
2023-05-21T00:10:05.346Z,18.90
2023-05-21T00:12:36.223Z,18.17
2023-05-21T00:15:11.549Z,16.83
2023-05-21T00:17:43.930Z,17.77
2023-05-21T00:20:16.491Z,17.77
2023-05-21T00:22:49.161Z,18.77
2023-05-21T00:25:20.117Z,18.83
2023-05-21T00:27:50.851Z,19.80
2023-05-21T00:30:24.962Z,21.00
2023-05-21T00:32:55.792Z,18.60
2023-05-21T00:35:26.830Z,20.07
2023-05-21T00:37:57.719Z,17.50
2023-05-21T00:40:28.321Z,19.50
2023-05-21T00:42:59.184Z,18.47
2023-05-21T00:45:33.041Z,19.83
2023-05-21T00:48:04.728Z,20.57
2023-05-21T00:50:36.559Z,17.90
2023-05-21T00:53:09.784Z,20.70
2023-05-21T00:55:41.550Z,21.43
2023-05-21T00:58:12.455Z,21.07
2023-05-21T01:00:46.211Z,19.77
2023-05-21T01:03:17.858Z,21.10
2023-05-21T01:05:49.038Z,18.30
2023-05-21T01:08:21.954Z,19.77
2023-05-21T01:10:53.477Z,20.00
2023-05-21T01:13:26.404Z,19.00
2023-05-21T01:16:01.507Z,18.00
2023-05-21T01:18:35.472Z,19.50
2023-05-21T01:21:07.831Z,20.77
2023-05-21T01:23:41.710Z,19.93
2023-05-21T01:26:13.074Z,20.57
2023-05-21T01:28:44.605Z,19.67
2023-05-21T01:31:28.641Z,19.73
2023-05-21T01:34:03.430Z,20.67
2023-05-21T01:36:42.448Z,20.37
2023-05-21T01:39:24.009Z,20.27
2023-05-21T01:41:57.980Z,19.10
2023-05-21T01:44:29.944Z,20.37
2023-05-21T01:47:02.681Z,23.20
2023-05-21T01:49:33.868Z,20.50
2023-05-21T01:52:05.476Z,18.70
2023-05-21T01:54:38.830Z,20.23
2023-05-21T01:57:11.374Z,20.27
2023-05-21T01:59:44.501Z,20.73
2023-05-21T02:02:15.755Z,20.03
2023-05-21T02:04:50.225Z,21.70
2023-05-21T02:07:21.796Z,22.53
2023-05-21T02:09:55.874Z,21.23
2023-05-21T02:12:28.451Z,18.57
2023-05-21T02:14:59.997Z,23.30
2023-05-21T02:17:32.144Z,21.90
2023-05-21T02:20:11.343Z,23.07
2023-05-21T02:22:42.827Z,20.73
2023-05-21T02:25:19.883Z,23.40
2023-05-21T02:27:53.947Z,24.27
2023-05-21T02:30:25.716Z,23.43
2023-05-21T02:32:59.000Z,22.37
2023-05-21T02:35:29.897Z,22.53
2023-05-21T02:38:03.237Z,22.77
2023-05-21T02:40:37.402Z,22.07
2023-05-21T02:43:08.392Z,22.57
2023-05-21T02:45:39.374Z,21.17
2023-05-21T02:48:10.525Z,22.80
2023-05-21T02:50:45.354Z,22.60
2023-05-21T02:53:16.680Z,20.60
2023-05-21T02:55:50.408Z,20.87
2023-05-21T02:58:23.673Z,21.03
2023-05-21T03:00:55.382Z,22.77
2023-05-21T03:03:26.349Z,23.50
2023-05-21T03:05:58.813Z,20.80
2023-05-21T03:08:29.626Z,20.40
2023-05-21T03:11:03.191Z,23.83
2023-05-21T03:13:33.978Z,22.40
2023-05-21T03:16:04.772Z,22.67
2023-05-21T03:18:36.277Z,20.47
2023-05-21T03:21:07.305Z,19.20
2023-05-21T03:23:38.243Z,23.63
2023-05-21T03:26:11.811Z,22.23
2023-05-21T03:28:42.542Z,22.10
2023-05-21T03:31:13.607Z,22.27
2023-05-21T03:34:11.679Z,23.30
2023-05-21T03:36:42.587Z,23.93
2023-05-21T03:39:13.606Z,24.80
2023-05-21T03:41:47.111Z,23.83
2023-05-21T03:44:25.702Z,22.57
2023-05-21T03:47:05.134Z,22.43
2023-05-21T03:49:38.505Z,22.33
2023-05-21T03:52:11.502Z,23.07
2023-05-21T03:54:42.276Z,22.80
2023-05-21T03:57:16.461Z,22.77
2023-05-21T03:59:47.656Z,22.40
2023-05-21T04:02:18.795Z,23.23
2023-05-21T04:04:51.788Z,21.70
2023-05-21T04:07:22.872Z,22.37
2023-05-21T04:09:53.475Z,21.03
2023-05-21T04:12:26.802Z,23.37
2023-05-21T04:14:57.533Z,23.03
2023-05-21T04:17:28.800Z,21.17
2023-05-21T04:19:59.606Z,23.10
2023-05-21T04:22:30.269Z,22.73
2023-05-21T04:25:00.920Z,21.23
2023-05-21T04:27:38.565Z,21.07
2023-05-21T04:30:11.351Z,22.10
2023-05-21T04:32:46.116Z,22.03
2023-05-21T04:35:18.317Z,19.47
2023-05-21T04:37:49.229Z,20.90
2023-05-21T04:40:24.523Z,21.70
2023-05-21T04:42:58.333Z,20.97
2023-05-21T04:45:29.929Z,20.50
2023-05-21T04:48:04.141Z,20.80
2023-05-21T04:50:35.160Z,21.10
2023-05-21T04:53:06.289Z,20.27
2023-05-21T04:55:40.019Z,21.33
2023-05-21T04:58:14.069Z,21.80
2023-05-21T05:00:46.308Z,20.47
2023-05-21T05:03:17.500Z,21.23
2023-05-21T05:05:48.311Z,18.50
2023-05-21T05:08:19.276Z,19.60
2023-05-21T05:10:50.892Z,19.80
2023-05-21T05:13:24.286Z,20.77
2023-05-21T05:15:55.475Z,19.33
2023-05-21T05:18:26.362Z,18.60
2023-05-21T05:20:57.028Z,19.97
2023-05-21T05:23:28.116Z,18.83
2023-05-21T05:25:59.092Z,19.83
2023-05-21T05:28:34.170Z,18.53
2023-05-21T05:31:05.277Z,17.83
2023-05-21T05:33:36.710Z,18.97
2023-05-21T05:36:07.864Z,18.17
2023-05-21T05:38:39.296Z,18.17
2023-05-21T05:41:09.998Z,18.97
2023-05-21T05:43:43.331Z,15.60
2023-05-21T05:46:14.419Z,17.13
2023-05-21T05:48:45.040Z,17.50
2023-05-21T05:51:17.361Z,16.57
2023-05-21T05:53:48.157Z,16.30
2023-05-21T05:56:19.514Z,15.70
2023-05-21T05:58:52.801Z,19.53
2023-05-21T06:01:24.913Z,20.57
2023-05-21T06:03:57.558Z,17.10
2023-05-21T06:06:28.334Z,16.53
2023-05-21T06:08:59.105Z,19.80
2023-05-21T06:11:29.828Z,17.37
2023-05-21T06:14:03.802Z,17.00
2023-05-21T06:16:34.482Z,15.70
2023-05-21T06:19:05.663Z,16.40
2023-05-21T06:21:36.769Z,15.83
2023-05-21T06:24:09.699Z,17.53
2023-05-21T06:26:40.416Z,16.50
2023-05-21T06:29:15.407Z,16.67
2023-05-21T06:31:46.550Z,15.30
2023-05-21T06:34:17.524Z,16.30
2023-05-21T06:36:48.145Z,16.47
2023-05-21T06:39:18.935Z,15.33
2023-05-21T06:41:49.624Z,18.10
2023-05-21T06:44:41.734Z,18.03
2023-05-21T06:47:20.269Z,15.90
2023-05-21T06:49:50.941Z,16.50
2023-05-21T06:52:21.666Z,17.00
2023-05-21T06:54:52.664Z,17.53
2023-05-21T06:57:24.379Z,16.73
2023-05-21T06:59:57.944Z,16.00
2023-05-21T07:02:28.695Z,17.43
2023-05-21T07:04:59.458Z,17.80
2023-05-21T07:07:30.142Z,16.20
2023-05-21T07:10:00.800Z,16.87
2023-05-21T07:12:31.428Z,16.30
2023-05-21T07:15:04.979Z,16.30
2023-05-21T07:17:35.695Z,16.27
2023-05-21T07:20:09.116Z,15.77
2023-05-21T07:22:43.108Z,15.10
2023-05-21T07:25:15.398Z,17.37
2023-05-21T07:27:46.047Z,14.87
2023-05-21T07:30:20.429Z,14.00
2023-05-21T07:32:51.235Z,13.50
2023-05-21T07:35:22.408Z,14.90
2023-05-21T07:37:53.196Z,15.03
2023-05-21T07:40:23.919Z,13.20
2023-05-21T07:42:55.786Z,14.70
2023-05-21T07:45:32.753Z,14.67
2023-05-21T07:48:03.809Z,12.13
2023-05-21T07:50:37.892Z,12.10
2023-05-21T07:53:08.569Z,12.40
2023-05-21T07:55:48.032Z,11.90
2023-05-21T07:58:22.443Z,12.20
2023-05-21T08:00:55.966Z,12.50
2023-05-21T08:03:28.230Z,12.30
2023-05-21T08:05:59.276Z,12.50
2023-05-21T08:08:30.627Z,12.30
2023-05-21T08:11:02.328Z,11.80
2023-05-21T08:13:34.009Z,12.00
2023-05-21T08:16:10.262Z,11.03
2023-05-21T08:18:41.479Z,12.20
2023-05-21T08:21:12.434Z,11.70
2023-05-21T08:23:43.881Z,11.63
2023-05-21T08:26:16.642Z,11.17
2023-05-21T08:28:47.835Z,11.67
2023-05-21T08:31:21.988Z,12.30
2023-05-21T08:33:56.918Z,10.93
2023-05-21T08:36:43.226Z,12.70
2023-05-21T08:39:28.537Z,11.20
2023-05-21T08:42:07.620Z,11.57
2023-05-21T08:44:42.387Z,11.43
2023-05-21T08:47:19.527Z,13.77
2023-05-21T08:49:53.692Z,13.07
2023-05-21T08:52:24.633Z,12.00
2023-05-21T08:54:57.397Z,11.30
2023-05-21T08:57:29.780Z,12.70
2023-05-21T09:00:02.112Z,11.00
2023-05-21T09:02:40.776Z,12.30
2023-05-21T09:05:13.379Z,11.20
2023-05-21T09:07:52.495Z,9.43
2023-05-21T09:10:38.854Z,11.33
2023-05-21T09:13:10.315Z,11.67
2023-05-21T09:15:42.094Z,12.10
2023-05-21T09:18:16.313Z,10.90
2023-05-21T09:21:27.516Z,11.67
2023-05-21T09:24:04.681Z,11.30
2023-05-21T09:26:35.613Z,10.47
2023-05-21T09:29:09.254Z,10.93
2023-05-21T09:31:40.383Z,11.87
2023-05-21T09:34:14.322Z,11.50
2023-05-21T09:36:47.323Z,11.80
2023-05-21T09:39:31.985Z,11.20
2023-05-21T09:42:06.346Z,11.90
2023-05-21T09:44:38.083Z,11.33
2023-05-21T09:47:10.003Z,10.50
2023-05-21T09:49:47.375Z,11.30
2023-05-21T09:52:25.987Z,12.17
2023-05-21T09:54:56.852Z,12.47
2023-05-21T09:57:28.498Z,11.47
2023-05-21T09:59:59.810Z,12.47
2023-05-21T10:02:32.227Z,11.07
2023-05-21T10:05:08.729Z,11.50
2023-05-21T10:07:40.283Z,11.33
2023-05-21T10:10:16.096Z,11.10
2023-05-21T10:12:49.364Z,11.60
2023-05-21T10:15:25.267Z,11.10
2023-05-21T10:17:58.604Z,10.60
2023-05-21T10:20:32.102Z,12.03
2023-05-21T10:23:03.504Z,11.47
2023-05-21T10:25:35.148Z,10.57
2023-05-21T10:28:07.125Z,11.80
2023-05-21T10:30:39.498Z,10.90
2023-05-21T10:33:11.614Z,12.70
2023-05-21T10:35:45.634Z,12.27
2023-05-21T10:38:18.766Z,11.57
2023-05-21T10:40:51.056Z,11.80
2023-05-21T10:43:52.236Z,13.37
2023-05-21T10:46:50.822Z,11.93
2023-05-21T10:49:40.501Z,10.83
2023-05-21T10:52:28.002Z,13.20
2023-05-21T10:55:16.579Z,11.90
2023-05-21T10:58:19.650Z,13.07
2023-05-21T11:00:50.762Z,12.43
2023-05-21T11:03:22.471Z,11.73
2023-05-21T11:05:57.061Z,12.30
2023-05-21T11:08:31.916Z,12.10
2023-05-21T11:11:02.951Z,12.10
2023-05-21T11:13:50.212Z,11.83
2023-05-21T11:16:23.231Z,12.20
2023-05-21T11:19:06.763Z,11.70
2023-05-21T11:21:43.445Z,36.90
2023-05-21T11:24:23.704Z,11.40
2023-05-21T11:27:05.972Z,12.30
2023-05-21T11:29:47.466Z,11.33
2023-05-21T11:32:20.779Z,10.73
2023-05-21T11:34:52.175Z,11.93
2023-05-21T11:37:30.960Z,12.33
2023-05-21T11:40:26.392Z,11.27
2023-05-21T11:42:58.718Z,10.67
2023-05-21T11:45:34.420Z,11.80
2023-05-21T11:48:06.776Z,27.13
2023-05-21T11:50:38.125Z,14.07
2023-05-21T11:53:09.505Z,11.03
2023-05-21T11:55:47.762Z,9.60
2023-05-21T11:58:19.725Z,10.13
2023-05-21T12:00:54.915Z,10.63
2023-05-21T12:03:27.603Z,8.67
2023-05-21T12:05:58.996Z,9.90
2023-05-21T12:08:30.689Z,10.00
2023-05-21T12:11:04.808Z,9.90
2023-05-21T12:13:35.647Z,9.30
2023-05-21T12:16:07.343Z,15.00
2023-05-21T12:18:39.430Z,15.87
2023-05-21T12:21:12.350Z,24.80
2023-05-21T12:23:43.500Z,8.60
2023-05-21T12:26:16.843Z,8.43
2023-05-21T12:28:48.118Z,10.00
2023-05-21T12:31:19.177Z,9.27
2023-05-21T12:33:52.092Z,9.30
2023-05-21T12:36:29.065Z,9.13
2023-05-21T12:39:00.680Z,9.13
2023-05-21T12:41:34.289Z,7.67
2023-05-21T12:44:05.919Z,8.13
2023-05-21T12:46:36.816Z,8.30
2023-05-21T12:49:08.261Z,8.03
2023-05-21T12:51:42.502Z,8.73
2023-05-21T12:54:16.102Z,8.63
2023-05-21T12:56:52.638Z,8.63
2023-05-21T12:59:23.288Z,8.43
2023-05-21T13:01:55.147Z,8.77
2023-05-21T13:04:27.054Z,8.50
2023-05-21T13:06:57.625Z,7.50
2023-05-21T13:09:28.150Z,8.83
2023-05-21T13:12:01.535Z,9.73
2023-05-21T13:14:32.080Z,9.70
2023-05-21T13:17:02.705Z,13.67
2023-05-21T13:19:33.312Z,7.23
2023-05-21T13:22:04.005Z,9.47
2023-05-21T13:24:34.556Z,7.53
2023-05-21T13:27:07.819Z,8.70
2023-05-21T13:29:38.805Z,10.70
2023-05-21T13:32:10.074Z,9.07
2023-05-21T13:34:41.167Z,9.30
2023-05-21T13:37:11.839Z,9.47
2023-05-21T13:39:42.515Z,9.27
2023-05-21T13:42:16.012Z,8.20
2023-05-21T13:44:46.701Z,8.27
2023-05-21T13:47:17.371Z,8.37
2023-05-21T13:49:48.114Z,8.70
2023-05-21T13:52:19.040Z,7.80
2023-05-21T13:54:49.678Z,7.87
2023-05-21T13:57:22.956Z,7.80
2023-05-21T13:59:53.484Z,11.30
2023-05-21T14:02:24.165Z,10.03
2023-05-21T14:04:54.853Z,10.20
2023-05-21T14:07:25.820Z,12.50
2023-05-21T14:09:56.975Z,8.40
2023-05-21T14:12:30.520Z,8.20
2023-05-21T14:15:01.231Z,12.20
2023-05-21T14:17:31.966Z,9.40
2023-05-21T14:20:03.036Z,9.23
2023-05-21T14:22:33.608Z,8.00
2023-05-21T14:25:04.202Z,18.87
2023-05-21T14:27:38.081Z,8.30
2023-05-21T14:30:10.174Z,9.00
2023-05-21T14:32:40.881Z,8.53
2023-05-21T14:35:12.220Z,7.40
2023-05-21T14:37:44.659Z,9.00
2023-05-21T14:40:16.790Z,9.30
2023-05-21T14:42:52.664Z,8.37
2023-05-21T14:45:24.013Z,8.17
2023-05-21T14:47:55.028Z,7.73
2023-05-21T14:50:25.944Z,7.47
2023-05-21T14:52:57.143Z,7.43
2023-05-21T14:55:27.955Z,9.87
2023-05-21T14:58:01.506Z,8.33
2023-05-21T15:00:39.539Z,8.47
2023-05-21T15:03:10.639Z,7.60
2023-05-21T15:05:41.501Z,7.23
2023-05-21T15:08:12.187Z,9.07
2023-05-21T15:10:42.923Z,8.60
2023-05-21T15:13:16.262Z,7.40
2023-05-21T15:15:46.999Z,7.43
2023-05-21T15:18:17.745Z,8.10
2023-05-21T15:20:48.416Z,7.33
2023-05-21T15:23:19.338Z,7.50
2023-05-21T15:25:50.080Z,6.90
2023-05-21T15:28:23.889Z,8.63
2023-05-21T15:30:54.500Z,8.47
2023-05-21T15:33:25.094Z,8.67
2023-05-21T15:35:56.185Z,8.50
2023-05-21T15:38:28.501Z,7.63
2023-05-21T15:40:59.950Z,8.53
2023-05-21T15:43:33.221Z,8.37
2023-05-21T15:46:03.928Z,7.67
2023-05-21T15:48:34.509Z,8.37
2023-05-21T15:51:05.055Z,7.10
2023-05-21T15:53:35.838Z,7.90
2023-05-21T15:56:06.557Z,8.17
2023-05-21T15:58:40.171Z,8.80
2023-05-21T16:01:10.920Z,8.20
2023-05-21T16:03:41.597Z,8.13
2023-05-21T16:06:12.388Z,7.73
2023-05-21T16:08:43.069Z,7.23
2023-05-21T16:11:13.687Z,8.00
2023-05-21T16:13:46.853Z,8.20
2023-05-21T16:16:17.864Z,13.70
2023-05-21T16:18:48.848Z,9.17
2023-05-21T16:21:19.654Z,8.20
2023-05-21T16:23:50.227Z,8.03
2023-05-21T16:26:21.578Z,8.17
2023-05-21T16:28:54.931Z,9.00
2023-05-21T16:31:25.674Z,8.43
2023-05-21T16:33:56.233Z,8.00
2023-05-21T16:36:26.766Z,9.33
2023-05-21T16:38:57.314Z,7.93
2023-05-21T16:41:27.997Z,9.40
2023-05-21T16:44:01.655Z,9.53
2023-05-21T16:46:32.345Z,9.13
2023-05-21T16:49:02.961Z,9.17
2023-05-21T16:51:34.123Z,9.00
2023-05-21T16:54:05.733Z,9.77
2023-05-21T16:56:36.915Z,8.83
2023-05-21T16:59:10.436Z,8.60
2023-05-21T17:01:41.101Z,9.43
2023-05-21T17:04:11.919Z,8.93
2023-05-21T17:06:42.724Z,8.97
2023-05-21T17:09:13.285Z,9.83
2023-05-21T17:11:45.017Z,9.57
2023-05-21T17:14:30.391Z,8.77
2023-05-21T17:17:03.693Z,8.77
2023-05-21T17:19:34.335Z,10.70
2023-05-21T17:22:05.195Z,9.63
2023-05-21T17:24:36.021Z,8.80
2023-05-21T17:27:06.925Z,9.60
2023-05-21T17:29:40.300Z,11.10
2023-05-21T17:32:11.167Z,10.00
2023-05-21T17:34:41.984Z,9.50
2023-05-21T17:37:12.628Z,10.47
2023-05-21T17:39:43.431Z,9.60
2023-05-21T17:42:14.059Z,10.30
2023-05-21T17:44:47.428Z,9.13
2023-05-21T17:47:18.100Z,8.97
2023-05-21T17:49:48.673Z,9.53
2023-05-21T17:52:19.388Z,11.30
2023-05-21T17:54:50.097Z,9.43
2023-05-21T17:57:20.832Z,11.03
2023-05-21T17:59:55.331Z,9.23
2023-05-21T18:02:27.573Z,9.93
2023-05-21T18:04:58.196Z,10.57
2023-05-21T18:07:28.793Z,10.07
2023-05-21T18:09:59.839Z,10.93
2023-05-21T18:12:30.451Z,10.17
2023-05-21T18:15:04.455Z,11.03
2023-05-21T18:17:35.159Z,10.57
2023-05-21T18:20:07.157Z,10.30
2023-05-21T18:22:37.857Z,10.97
2023-05-21T18:25:09.539Z,9.80
2023-05-21T18:27:40.302Z,10.97
2023-05-21T18:30:14.775Z,10.30
2023-05-21T18:32:46.765Z,10.87
2023-05-21T18:35:17.600Z,10.80
2023-05-21T18:37:48.915Z,9.93
2023-05-21T18:40:21.497Z,11.10
2023-05-21T18:42:52.560Z,11.40
2023-05-21T18:45:26.033Z,12.23
2023-05-21T18:47:56.799Z,11.83
2023-05-21T18:50:27.551Z,11.30
2023-05-21T18:52:58.250Z,11.10
2023-05-21T18:55:28.818Z,11.97
2023-05-21T18:57:59.532Z,11.90
2023-05-21T19:00:34.333Z,10.50
2023-05-21T19:03:05.163Z,11.80
2023-05-21T19:05:35.863Z,11.37
2023-05-21T19:08:06.620Z,11.30
2023-05-21T19:10:39.528Z,10.77
2023-05-21T19:13:10.649Z,10.43
2023-05-21T19:15:47.373Z,11.50
2023-05-21T19:18:18.088Z,11.97
2023-05-21T19:20:48.665Z,11.40
2023-05-21T19:23:19.348Z,11.40
2023-05-21T19:25:50.010Z,12.80
2023-05-21T19:28:20.655Z,17.53
2023-05-21T19:30:53.998Z,14.27
2023-05-21T19:33:24.802Z,16.27
2023-05-21T19:35:55.789Z,21.20
2023-05-21T19:38:26.957Z,14.03
2023-05-21T19:40:57.643Z,15.13
2023-05-21T19:43:28.242Z,13.53
2023-05-21T19:46:01.743Z,13.20
2023-05-21T19:48:32.596Z,13.50
2023-05-21T19:51:03.435Z,14.40
2023-05-21T19:53:35.037Z,14.20
2023-05-21T19:56:08.783Z,13.80
2023-05-21T19:58:39.581Z,15.43
2023-05-21T20:01:14.409Z,14.33
2023-05-21T20:03:45.876Z,15.30
2023-05-21T20:06:19.251Z,14.27
2023-05-21T20:08:49.896Z,15.10
2023-05-21T20:11:21.334Z,13.83
2023-05-21T20:13:53.604Z,14.70
2023-05-21T20:16:27.670Z,14.27
2023-05-21T20:19:01.216Z,18.97
2023-05-21T20:21:34.320Z,17.60
2023-05-21T20:24:05.137Z,17.00
2023-05-21T20:26:36.947Z,18.70
2023-05-21T20:29:08.259Z,22.00
2023-05-21T20:31:41.585Z,22.60
2023-05-21T20:34:12.577Z,20.83
2023-05-21T20:36:44.042Z,22.57
2023-05-21T20:39:15.664Z,18.83
2023-05-21T20:41:47.166Z,19.13
2023-05-21T20:44:18.106Z,19.13
2023-05-21T20:46:53.118Z,19.10
2023-05-21T20:49:25.115Z,19.90
2023-05-21T20:51:55.967Z,17.73
2023-05-21T20:54:27.094Z,16.53
2023-05-21T20:56:59.268Z,19.80
2023-05-21T20:59:30.265Z,18.40
2023-05-21T21:02:03.774Z,17.97
2023-05-21T21:04:34.727Z,17.37
2023-05-21T21:07:08.227Z,17.63
2023-05-21T21:09:39.452Z,18.80
2023-05-21T21:12:24.506Z,17.90
2023-05-21T21:14:56.347Z,18.20
2023-05-21T21:17:29.819Z,18.93
2023-05-21T21:20:00.649Z,18.57
2023-05-21T21:22:32.557Z,16.63
2023-05-21T21:25:03.716Z,15.70
2023-05-21T21:27:35.022Z,16.30
2023-05-21T21:30:06.016Z,15.97
2023-05-21T21:32:39.712Z,16.17
2023-05-21T21:35:11.276Z,16.20
2023-05-21T21:37:41.963Z,18.23
2023-05-21T21:40:13.672Z,17.07
2023-05-21T21:42:46.595Z,18.50
2023-05-21T21:45:18.151Z,15.87
2023-05-21T21:47:51.684Z,14.97
2023-05-21T21:50:22.612Z,17.00
2023-05-21T21:52:57.477Z,16.33
2023-05-21T21:55:30.403Z,17.33
2023-05-21T21:58:01.096Z,16.27
2023-05-21T22:00:32.028Z,16.70
2023-05-21T22:03:05.442Z,17.43
2023-05-21T22:05:36.350Z,15.83
2023-05-21T22:08:07.718Z,17.47
2023-05-21T22:10:38.809Z,17.90
2023-05-21T22:13:09.718Z,16.80
2023-05-21T22:15:40.769Z,15.40
2023-05-21T22:18:15.702Z,18.00
2023-05-21T22:20:51.573Z,16.10
2023-05-21T22:23:22.243Z,16.13
2023-05-21T22:25:53.033Z,17.40
2023-05-21T22:28:24.054Z,15.87
2023-05-21T22:30:54.753Z,16.23
2023-05-21T22:33:29.328Z,16.50
2023-05-21T22:36:00.455Z,18.30
2023-05-21T22:38:31.506Z,18.03
2023-05-21T22:41:02.502Z,15.57
2023-05-21T22:43:34.048Z,17.80
2023-05-21T22:46:04.847Z,17.57
2023-05-21T22:48:41.971Z,16.70
2023-05-21T22:51:14.242Z,17.10
2023-05-21T22:53:45.583Z,18.23
2023-05-21T22:56:16.339Z,16.87
2023-05-21T22:58:47.265Z,16.97
2023-05-21T23:01:18.009Z,16.53
2023-05-21T23:03:53.788Z,18.03
2023-05-21T23:06:24.957Z,18.03
2023-05-21T23:08:55.579Z,17.00
2023-05-21T23:11:26.793Z,15.10
2023-05-21T23:13:57.434Z,17.33
2023-05-21T23:16:31.074Z,15.50
2023-05-21T23:19:05.332Z,18.93
2023-05-21T23:21:36.622Z,16.07
2023-05-21T23:24:08.165Z,18.70
2023-05-21T23:26:39.225Z,16.93
2023-05-21T23:29:10.312Z,17.07
2023-05-21T23:31:41.221Z,16.57
2023-05-21T23:34:14.652Z,19.47
2023-05-21T23:36:45.600Z,15.80
2023-05-21T23:39:16.348Z,17.10
2023-05-21T23:41:47.210Z,17.07
2023-05-21T23:44:20.401Z,16.43
2023-05-21T23:46:51.186Z,16.43
2023-05-21T23:49:24.816Z,17.17
2023-05-21T23:51:55.690Z,17.00
2023-05-21T23:54:26.381Z,17.20
2023-05-21T23:56:57.416Z,15.80
2023-05-21T23:59:28.699Z,19.27
